Map

Track Data

SID SEASON NUMBER BASIN SUBBASIN NAME ISO_TIME NATURE LAT LON WMO_WIND WMO_PRES WMO_AGENCY TRACK_TYPE DIST2LAND LANDFALL IFLAG USA_AGENCY USA_ATCF_ID USA_LAT USA_LON USA_RECORD USA_STATUS USA_WIND USA_PRES USA_SSHS USA_R34_NE USA_R34_SE USA_R34_SW USA_R34_NW USA_R50_NE USA_R50_SE USA_R50_SW USA_R50_NW USA_R64_NE USA_R64_SE USA_R64_SW USA_R64_NW USA_POCI USA_ROCI USA_RMW USA_EYE TOKYO_LAT TOKYO_LON TOKYO_GRADE TOKYO_WIND TOKYO_PRES TOKYO_R50_DIR TOKYO_R50_LONG TOKYO_R50_SHORT TOKYO_R30_DIR TOKYO_R30_LONG TOKYO_R30_SHORT TOKYO_LAND CMA_LAT CMA_LON CMA_CAT CMA_WIND CMA_PRES HKO_LAT HKO_LON HKO_CAT HKO_WIND HKO_PRES NEWDELHI_LAT NEWDELHI_LON NEWDELHI_GRADE NEWDELHI_WIND NEWDELHI_PRES NEWDELHI_CI NEWDELHI_DP NEWDELHI_POCI REUNION_LAT REUNION_LON REUNION_TYPE REUNION_WIND REUNION_PRES REUNION_TNUM REUNION_CI REUNION_RMW REUNION_R34_NE REUNION_R34_SE REUNION_R34_SW REUNION_R34_NW REUNION_R50_NE REUNION_R50_SE REUNION_R50_SW REUNION_R50_NW REUNION_R64_NE REUNION_R64_SE REUNION_R64_SW REUNION_R64_NW BOM_LAT BOM_LON BOM_TYPE BOM_WIND BOM_PRES BOM_TNUM BOM_CI BOM_RMW BOM_R34_NE BOM_R34_SE BOM_R34_SW BOM_R34_NW BOM_R50_NE BOM_R50_SE BOM_R50_SW BOM_R50_NW BOM_R64_NE BOM_R64_SE BOM_R64_SW BOM_R64_NW BOM_ROCI BOM_POCI BOM_EYE BOM_POS_METHOD BOM_PRES_METHOD NADI_LAT NADI_LON NADI_CAT NADI_WIND NADI_PRES WELLINGTON_LAT WELLINGTON_LON WELLINGTON_WIND WELLINGTON_PRES DS824_LAT DS824_LON DS824_STAGE DS824_WIND DS824_PRES TD9636_LAT TD9636_LON TD9636_STAGE TD9636_WIND TD9636_PRES TD9635_LAT TD9635_LON TD9635_WIND TD9635_PRES TD9635_ROCI NEUMANN_LAT NEUMANN_LON NEUMANN_CLASS NEUMANN_WIND NEUMANN_PRES MLC_LAT MLC_LON MLC_CLASS MLC_WIND MLC_PRES USA_GUST BOM_GUST BOM_GUST_PER REUNION_GUST REUNION_GUST_PER USA_SEAHGT USA_SEARAD_NE USA_SEARAD_SE USA_SEARAD_SW USA_SEARAD_NW STORM_SPEED STORM_DIR
1938002N32319 1938 3 NA NA NOT_NAMED 1938-01-01 12:00:00 ET 32.3000 -40.6000 40 hurdat_atl main 1917 1917 O_____________ hurdat_atl AL011938 32.3000 -40.6000 EX 40 -4 8 90
1938002N32319 1938 3 NA NA NOT_NAMED 1938-01-01 15:00:00 ET 32.3003 -40.1525 main 1936 1936 P_____________ AL011938 32.3003 -40.1525 EX 40 -4 8 90
1938002N32319 1938 3 NA NA NOT_NAMED 1938-01-01 18:00:00 ET 32.3000 -39.7000 40 hurdat_atl main 1960 1960 O_____________ hurdat_atl AL011938 32.3000 -39.7000 EX 40 -4 8 90
1938002N32319 1938 3 NA NA NOT_NAMED 1938-01-01 21:00:00 ET 32.2999 -39.2425 main 1986 1986 P_____________ AL011938 32.2999 -39.2425 EX 42 -4 8 90
1938002N32319 1938 3 NA NA NOT_NAMED 1938-01-02 00:00:00 ET 32.3000 -38.8000 45 hurdat_atl main 2006 2006 O_____________ hurdat_atl AL011938 32.3000 -38.8000 EX 45 -4 7 89
1938002N32319 1938 3 NA NA NOT_NAMED 1938-01-02 03:00:00 ET 32.3072 -38.4001 main 2027 2027 P_____________ AL011938 32.3072 -38.4001 EX 47 -4 7 90
1938002N32319 1938 3 NA NA NOT_NAMED 1938-01-02 06:00:00 ET 32.3000 -38.0000 50 hurdat_atl main 2048 2039 O_____________ hurdat_atl AL011938 32.3000 -38.0000 EX 50 -4 7 93
1938002N32319 1938 3 NA NA NOT_NAMED 1938-01-02 09:00:00 ET 32.2651 -37.5425 main 2030 1991 P_____________ AL011938 32.2651 -37.5425 EX 50 -4 8 97
1938002N32319 1938 3 NA NA NOT_NAMED 1938-01-02 12:00:00 ET 32.2000 -37.1000 50 hurdat_atl main 1991 1953 O_____________ hurdat_atl AL011938 32.2000 -37.1000 EX 50 -4 7 102
1938002N32319 1938 3 NA NA NOT_NAMED 1938-01-02 15:00:00 ET 32.1148 -36.7276 main 1953 1923 P_____________ AL011938 32.1148 -36.7276 EX 50 -4 6 109
1938002N32319 1938 3 NA NA NOT_NAMED 1938-01-02 18:00:00 ET 32.0000 -36.4000 50 hurdat_atl main 1923 1894 O_____________ hurdat_atl AL011938 32.0000 -36.4000 EX 50 -4 6 109
1938002N32319 1938 3 NA NA NOT_NAMED 1938-01-02 21:00:00 ET 31.9324 -36.0933 main 1894 1863 P_____________ AL011938 31.9324 -36.0933 EX 50 -4 6 121
1938002N32319 1938 3 NA NA NOT_NAMED 1938-01-03 00:00:00 ET 31.7000 -35.8000 50 hurdat_atl main 1863 1829 O_____________ hurdat_atl AL011938 31.7000 -35.8000 EX 50 -4 9 146
1938002N32319 1938 3 NA NA NOT_NAMED 1938-01-03 03:00:00 ET 31.1700 -35.4847 main 1829 1794 P_____________ AL011938 31.1700 -35.4847 EX 50 -4 14 158
1938002N32319 1938 3 NA NA NOT_NAMED 1938-01-03 06:00:00 ET 30.4000 -35.2000 50 hurdat_atl main 1794 1763 O_____________ hurdat_atl AL011938 30.4000 -35.2000 EX 50 -4 18 164
1938002N32319 1938 3 NA NA NOT_NAMED 1938-01-03 09:00:00 ET 29.4275 -34.9163 main 1763 1754 P_____________ AL011938 29.4275 -34.9163 EX 50 -4 19 170
1938002N32319 1938 3 NA NA NOT_NAMED 1938-01-03 12:00:00 ET 28.5000 -34.8000 50 hurdat_atl main 1757 1757 O_____________ hurdat_atl AL011938 28.5000 -34.8000 EX 50 -4 15 182
1938002N32319 1938 3 NA NA NOT_NAMED 1938-01-03 15:00:00 ET 27.9251 -34.9758 main 1782 1782 P_____________ AL011938 27.9251 -34.9758 EX 52 -4 11 204
1938002N32319 1938 3 NA NA NOT_NAMED 1938-01-03 18:00:00 TS 27.5000 -35.3000 55 hurdat_atl main 1816 1816 O_____________ hurdat_atl AL011938 27.5000 -35.3000 TS 55 0 10 212
1938002N32319 1938 3 NA NA NOT_NAMED 1938-01-03 21:00:00 TS 27.0425 -35.5923 main 1853 1853 P_____________ AL011938 27.0425 -35.5923 TS 55 0 11 211
1938002N32319 1938 3 NA NA NOT_NAMED 1938-01-04 00:00:00 TS 26.6000 -35.9000 55 hurdat_atl main 1890 1890 O_____________ hurdat_atl AL011938 26.6000 -35.9000 TS 55 0 10 210
1938002N32319 1938 3 NA NA NOT_NAMED 1938-01-04 03:00:00 TS 26.1421 -36.1619 main 1929 1929 P_____________ AL011938 26.1421 -36.1619 TS 57 0 11 211
1938002N32319 1938 3 NA NA NOT_NAMED 1938-01-04 06:00:00 TS 25.7000 -36.5000 60 hurdat_atl main 1968 1968 O_____________ hurdat_atl AL011938 25.7000 -36.5000 TS 60 0 11 220
1938002N32319 1938 3 NA NA NOT_NAMED 1938-01-04 09:00:00 TS 25.2771 -36.9749 main 2027 2027 P_____________ AL011938 25.2771 -36.9749 TS 62 0 13 231
1938002N32319 1938 3 NA NA NOT_NAMED 1938-01-04 12:00:00 TS 24.9000 -37.6000 65 hurdat_atl main 2096 2096 O_____________ hurdat_atl AL011938 24.9000 -37.6000 HU 65 1 14 241
1938002N32319 1938 3 NA NA NOT_NAMED 1938-01-04 15:00:00 TS 24.5776 -38.3623 main 2183 2183 P_____________ AL011938 24.5776 -38.3623 HU 67 1 16 248
1938002N32319 1938 3 NA NA NOT_NAMED 1938-01-04 18:00:00 TS 24.3000 -39.2000 70 hurdat_atl main 2270 2270 O_____________ hurdat_atl AL011938 24.3000 -39.2000 HU 70 1 16 252
1938002N32319 1938 3 NA NA NOT_NAMED 1938-01-04 21:00:00 TS 24.0727 -40.0444 main 2354 2354 P_____________ AL011938 24.0727 -40.0444 HU 70 1 15 251
1938002N32319 1938 3 NA NA NOT_NAMED 1938-01-05 00:00:00 TS 23.8000 -40.8000 70 hurdat_atl main 2435 2370 O_____________ hurdat_atl AL011938 23.8000 -40.8000 HU 70 1 14 241
1938002N32319 1938 3 NA NA NOT_NAMED 1938-01-05 03:00:00 TS 23.3945 -41.3673 main 2364 2295 P_____________ AL011938 23.3945 -41.3673 HU 67 1 13 226
1938002N32319 1938 3 NA NA NOT_NAMED 1938-01-05 06:00:00 TS 22.9000 -41.8000 65 hurdat_atl main 2295 2226 O_____________ hurdat_atl AL011938 22.9000 -41.8000 HU 65 1 13 216
1938002N32319 1938 3 NA NA NOT_NAMED 1938-01-05 09:00:00 TS 22.3722 -42.1721 main 2226 2153 P_____________ AL011938 22.3722 -42.1721 HU 62 0 13 210
1938002N32319 1938 3 NA NA NOT_NAMED 1938-01-05 12:00:00 TS 21.8000 -42.5000 60 hurdat_atl main 2153 2080 O_____________ hurdat_atl AL011938 21.8000 -42.5000 TS 60 0 13 209
1938002N32319 1938 3 NA NA NOT_NAMED 1938-01-05 15:00:00 TS 21.2149 -42.8497 main 2080 2001 P_____________ AL011938 21.2149 -42.8497 TS 57 0 14 209
1938002N32319 1938 3 NA NA NOT_NAMED 1938-01-05 18:00:00 TS 20.6000 -43.2000 55 hurdat_atl main 2001 1927 O_____________ hurdat_atl AL011938 20.6000 -43.2000 TS 55 0 14 208
1938002N32319 1938 3 NA NA NOT_NAMED 1938-01-05 21:00:00 TS 19.9574 -43.5498 main 1927 1839 P_____________ AL011938 19.9574 -43.5498 TS 52 0 15 207
1938002N32319 1938 3 NA NA NOT_NAMED 1938-01-06 00:00:00 TS 19.3000 -43.9000 50 hurdat_atl main 1839 1765 O_____________ hurdat_atl AL011938 19.3000 -43.9000 TS 50 0 15 207
1938002N32319 1938 3 NA NA NOT_NAMED 1938-01-06 03:00:00 TS 18.6424 -44.2498 main 1755 1676 P_____________ AL011938 18.6424 -44.2498 TS 47 0 15 207
1938002N32319 1938 3 NA NA NOT_NAMED 1938-01-06 06:00:00 TS 18.0000 -44.6000 45 hurdat_atl main 1676 1602 O_____________ hurdat_atl AL011938 18.0000 -44.6000 TS 45 0 14 208
1938002N32319 1938 3 NA NA NOT_NAMED 1938-01-06 09:00:00 TS 17.3774 -44.9498 main 1602 1523 P_____________ AL011938 17.3774 -44.9498 TS 42 0 14 209
1938002N32319 1938 3 NA NA NOT_NAMED 1938-01-06 12:00:00 TS 16.8000 -45.3000 40 hurdat_atl main 1523 1459 O_____________ hurdat_atl AL011938 16.8000 -45.3000 TS 40 0 13 211
1938002N32319 1938 3 NA NA NOT_NAMED 1938-01-06 15:00:00 TS 16.2826 -45.6503 main 1453 1388 P_____________ AL011938 16.2826 -45.6503 TS 37 0 12 214
1938002N32319 1938 3 NA NA NOT_NAMED 1938-01-06 18:00:00 TS 15.8000 -46.0000 35 hurdat_atl main 1388 O_____________ hurdat_atl AL011938 15.8000 -46.0000 TS 35 0 12 215

About IBTrACS Database

This database is a web-friendly format of International Best Track Archive for Climate Stewardship (IBTrACS), a global best track data archive curated by NOAA dating back to 1842.

Updated: 2021-12-08